Meteo Giornale » Osservazioni meteo Tanzania » Mwanza
ore: 18:30 - Osservazioni Meteo Mwanza
Lat. 2° 28' S Lon. 32° 55' E Alt. 1139 metri s.l.m.
27 °C
Poco Nuvoloso
Temp. 24 Ore
20 °C
32 °C
Ovest
7.4 Km/h
Dew point 18 °C
Umidità 57 %
Visibilità 10 Km
Il sole sorge alle ore 06:46
Il sole tramonta alle ore 18:50
| Data e Ora | Cielo e Fenomeni | T °C | DP °C | Um. % | Pres. hPa | Vis. km | Vento km/h | |
|---|---|---|---|---|---|---|---|---|
| Oggi h: 18:30 | Poco Nuvoloso | 27 | 18 | 57 | 1017 | 10 | O 7.4 | |
| Oggi h: 18:00 | Nuvoloso | 30 | 13 | 35 | 1017 | 10 | N 5.5 | |
| Oggi h: 17:30 | Nuvoloso | 30 | 14 | 37 | 1017 | 10 | NO 11.1 | |
| Oggi h: 17:00 | Nuvoloso | 31 | 13 | 33 | 1017 | 10 | N/NO 14.8 | |
| Oggi h: 16:30 | Nuvoloso | 30 | 14 | 37 | 1017 | 10 | NO 16.7 | |
| Oggi h: 15:30 | Poco Nuvoloso | 30 | 14 | 37 | 1017 | 10 | O 7.4 | |
| Oggi h: 15:00 | Nuvoloso | 32 | 10 | 25 | 1018 | 10 | E 18.5 | |
| Oggi h: 14:00 | Nuvoloso | 32 | 12 | 29 | 1019 | 10 | E 22.2 | |
| Oggi h: 13:30 | Poco Nuvoloso | 31 | 12 | 31 | 1020 | 10 | E 27.8 | |
| Oggi h: 13:00 | Poco Nuvoloso | 31 | 12 | 31 | 1020 | 10 | E 9.3 | |
| Oggi h: 12:30 | Poco Nuvoloso | 30 | 13 | 35 | 1021 | 10 | E/SE 22.2 | |
| Oggi h: 12:00 | Sereno | 30 | 13 | 35 | 1021 | 10 | E 33.3 | |
| Oggi h: 11:30 | Sereno | 29 | 14 | 39 | 1022 | 10 | E/SE 27.8 | |
| Oggi h: 11:00 | Sereno | 28 | 14 | 42 | 1022 | 10 | E 22.2 | |
| Oggi h: 10:30 | Sereno | 27 | 13 | 42 | 1022 | 10 | E 33.3 | |
| Oggi h: 10:00 | Sereno | 26 | 14 | 47 | 1022 | 10 | E 35.2 | |
| Oggi h: 09:30 | Sereno | 25 | 14 | 50 | 1022 | 10 | E 33.3 | |
| Oggi h: 09:00 | Sereno | 23 | 17 | 68 | 1022 | 10 | E 27.8 | |
| Oggi h: 08:30 | Sereno | 23 | 14 | 56 | 1021 | 10 | E/SE 16.7 | |
| Oggi h: 08:00 | Sereno | 20 | 16 | 77 | 1019 | 10 | SE 13 | |
| Oggi h: 07:30 | Sereno | 21 | 14 | 64 | 1021 | 10 | S/SE 13 | |
| Oggi h: 07:00 | Poco Nuvoloso | 20 | 16 | 77 | 1021 | 10 | SE 9.3 | |
| Oggi h: 06:00 | Poco Nuvoloso | 20 | 14 | 68 | 1020 | 10 | S/SE 7.4 | |
| Oggi h: 05:00 | Poco Nuvoloso | 24 | 9 | 38 | 1020 | 10 | E 18.5 | |
| Oggi h: 00:00 | Poco Nuvoloso | 24 | 9 | 38 | 1020 | 10 | E 18.5 | |
| Ieri h: 23:30 | Nuvoloso | 25 | 9 | 36 | 1020 | 10 | SE 20.3 | |
| Ieri h: 23:00 | Nuvoloso | 25 | 9 | 36 | 1020 | 10 | SE 20.3 | |
| Ieri h: 22:00 | Nuvoloso | 27 | 9 | 32 | 1019 | 10 | SE 20.3 | |
| Ieri h: 21:00 | Nuvoloso | 27 | 9 | 32 | 1019 | 10 | SE 11.1 | |



